Depoe Bay, Oregon
Current Conditions -  °F | °C
As of 12:35 PM on Monday 26 Jan 2015 (Local Time) from KONP Reporting Station
Haze Haze  
Wind Chill: 55°   Ceiling: Unl
Heat Index: 55°   Visibility: 5mi
Dew Point: 52°   Wind: 14mph
Humidity: 88%   Direction: 210°SSW
Pressure: 30.02"   Gusts: NA
Location:  44.81°N, 124.06°W
Report Text: KONP 262035Z AUTO 21012KT 5SM HZ CLR 13/11 A3002 RMK AO2
Loading
Personal Weather Stations






























Interactive Weather Map New forecast layout! Learn more

10-Day Weather Forecast

Advertisements
Track Severe Weather on mobile